sensor_id;sensor_type;location;lat;lon;timestamp;P1;durP1;ratioP1;P2;durP2;ratioP2
3407;SDS011;1717;50.240;8.406;2022-10-31T00:01:44;7.00;;;4.80;;
3407;SDS011;1717;50.240;8.406;2022-10-31T00:04:11;6.47;;;3.73;;
3407;SDS011;1717;50.240;8.406;2022-10-31T00:06:39;6.10;;;3.67;;
3407;SDS011;1717;50.240;8.406;2022-10-31T00:09:08;9.53;;;4.40;;
3407;SDS011;1717;50.240;8.406;2022-10-31T00:11:36;12.70;;;4.73;;
3407;SDS011;1717;50.240;8.406;2022-10-31T00:14:03;18.70;;;4.57;;
3407;SDS011;1717;50.240;8.406;2022-10-31T00:16:30;9.77;;;4.20;;
3407;SDS011;1717;50.240;8.406;2022-10-31T00:18:57;7.60;;;4.23;;
3407;SDS011;1717;50.240;8.406;2022-10-31T00:21:25;6.07;;;3.50;;
3407;SDS011;1717;50.240;8.406;2022-10-31T00:23:53;5.27;;;4.13;;
3407;SDS011;1717;50.240;8.406;2022-10-31T00:26:20;5.63;;;3.77;;
3407;SDS011;1717;50.240;8.406;2022-10-31T00:28:47;6.37;;;3.60;;
3407;SDS011;1717;50.240;8.406;2022-10-31T00:31:16;6.43;;;3.43;;
3407;SDS011;1717;50.240;8.406;2022-10-31T00:33:43;10.93;;;3.90;;
3407;SDS011;1717;50.240;8.406;2022-10-31T00:36:10;5.17;;;3.70;;
3407;SDS011;1717;50.240;8.406;2022-10-31T00:38:38;8.00;;;3.90;;
3407;SDS011;1717;50.240;8.406;2022-10-31T00:41:07;7.90;;;4.03;;
3407;SDS011;1717;50.240;8.406;2022-10-31T00:43:34;7.70;;;3.90;;
3407;SDS011;1717;50.240;8.406;2022-10-31T00:46:00;10.10;;;4.10;;
3407;SDS011;1717;50.240;8.406;2022-10-31T00:48:27;9.50;;;4.13;;
3407;SDS011;1717;50.240;8.406;2022-10-31T00:50:54;6.27;;;4.00;;
3407;SDS011;1717;50.240;8.406;2022-10-31T00:53:21;8.33;;;4.27;;
3407;SDS011;1717;50.240;8.406;2022-10-31T00:55:48;5.83;;;3.80;;
3407;SDS011;1717;50.240;8.406;2022-10-31T00:58:16;9.33;;;4.20;;
3407;SDS011;1717;50.240;8.406;2022-10-31T01:00:43;7.07;;;3.30;;
3407;SDS011;1717;50.240;8.406;2022-10-31T01:03:10;8.60;;;4.00;;
3407;SDS011;1717;50.240;8.406;2022-10-31T01:05:37;4.50;;;3.70;;
3407;SDS011;1717;50.240;8.406;2022-10-31T01:08:04;7.27;;;4.50;;
3407;SDS011;1717;50.240;8.406;2022-10-31T01:10:30;7.03;;;4.50;;
3407;SDS011;1717;50.240;8.406;2022-10-31T01:12:57;9.20;;;4.80;;
3407;SDS011;1717;50.240;8.406;2022-10-31T01:15:25;7.57;;;4.03;;
3407;SDS011;1717;50.240;8.406;2022-10-31T01:17:52;5.60;;;4.60;;
3407;SDS011;1717;50.240;8.406;2022-10-31T01:20:19;7.93;;;3.87;;
3407;SDS011;1717;50.240;8.406;2022-10-31T01:22:46;7.23;;;4.57;;
3407;SDS011;1717;50.240;8.406;2022-10-31T01:25:12;7.70;;;4.13;;
3407;SDS011;1717;50.240;8.406;2022-10-31T01:27:39;11.70;;;4.17;;
3407;SDS011;1717;50.240;8.406;2022-10-31T01:30:06;7.10;;;4.43;;
3407;SDS011;1717;50.240;8.406;2022-10-31T01:32:35;6.47;;;5.00;;
3407;SDS011;1717;50.240;8.406;2022-10-31T01:35:02;7.23;;;3.80;;
3407;SDS011;1717;50.240;8.406;2022-10-31T01:37:30;11.40;;;5.07;;
3407;SDS011;1717;50.240;8.406;2022-10-31T01:39:57;4.37;;;3.60;;
3407;SDS011;1717;50.240;8.406;2022-10-31T01:42:23;6.30;;;3.53;;
3407;SDS011;1717;50.240;8.406;2022-10-31T01:44:52;10.27;;;4.60;;
3407;SDS011;1717;50.240;8.406;2022-10-31T01:47:22;6.43;;;3.87;;
3407;SDS011;1717;50.240;8.406;2022-10-31T01:49:58;10.23;;;4.37;;
3407;SDS011;1717;50.240;8.406;2022-10-31T01:52:29;5.27;;;3.60;;
3407;SDS011;1717;50.240;8.406;2022-10-31T01:54:59;9.80;;;4.70;;
3407;SDS011;1717;50.240;8.406;2022-10-31T01:57:30;8.07;;;4.50;;
3407;SDS011;1717;50.240;8.406;2022-10-31T01:59:59;7.70;;;4.63;;
3407;SDS011;1717;50.240;8.406;2022-10-31T02:02:29;7.00;;;4.60;;
3407;SDS011;1717;50.240;8.406;2022-10-31T02:04:59;10.10;;;4.07;;
3407;SDS011;1717;50.240;8.406;2022-10-31T02:07:30;7.90;;;5.27;;
3407;SDS011;1717;50.240;8.406;2022-10-31T02:10:02;8.40;;;4.53;;
3407;SDS011;1717;50.240;8.406;2022-10-31T02:12:30;6.23;;;4.10;;
3407;SDS011;1717;50.240;8.406;2022-10-31T02:14:58;7.00;;;4.20;;
3407;SDS011;1717;50.240;8.406;2022-10-31T02:17:26;8.90;;;4.90;;
3407;SDS011;1717;50.240;8.406;2022-10-31T02:19:57;9.70;;;4.60;;
3407;SDS011;1717;50.240;8.406;2022-10-31T02:22:36;9.30;;;5.20;;
3407;SDS011;1717;50.240;8.406;2022-10-31T02:25:15;15.80;;;6.20;;
3407;SDS011;1717;50.240;8.406;2022-10-31T02:28:08;7.80;;;4.23;;
3407;SDS011;1717;50.240;8.406;2022-10-31T02:30:59;7.73;;;5.20;;
3407;SDS011;1717;50.240;8.406;2022-10-31T02:33:34;6.53;;;4.33;;
3407;SDS011;1717;50.240;8.406;2022-10-31T02:36:07;7.57;;;5.20;;
3407;SDS011;1717;50.240;8.406;2022-10-31T02:38:42;12.80;;;4.37;;
3407;SDS011;1717;50.240;8.406;2022-10-31T02:41:18;9.00;;;4.67;;
3407;SDS011;1717;50.240;8.406;2022-10-31T02:43:54;10.33;;;4.20;;
3407;SDS011;1717;50.240;8.406;2022-10-31T02:46:30;7.07;;;4.30;;
3407;SDS011;1717;50.240;8.406;2022-10-31T02:49:02;11.90;;;4.47;;
3407;SDS011;1717;50.240;8.406;2022-10-31T02:51:34;7.27;;;4.90;;
3407;SDS011;1717;50.240;8.406;2022-10-31T02:54:01;7.77;;;5.47;;
3407;SDS011;1717;50.240;8.406;2022-10-31T02:56:28;8.93;;;4.27;;
3407;SDS011;1717;50.240;8.406;2022-10-31T02:58:55;6.67;;;4.33;;
3407;SDS011;1717;50.240;8.406;2022-10-31T03:07:30;7.60;;;5.50;;
3407;SDS011;1717;50.240;8.406;2022-10-31T03:10:10;6.70;;;4.83;;
3407;SDS011;1717;50.240;8.406;2022-10-31T03:12:46;8.60;;;4.60;;
3407;SDS011;1717;50.240;8.406;2022-10-31T03:15:22;7.27;;;4.53;;
3407;SDS011;1717;50.240;8.406;2022-10-31T03:17:57;5.13;;;4.27;;
3407;SDS011;1717;50.240;8.406;2022-10-31T03:20:29;7.97;;;4.73;;
3407;SDS011;1717;50.240;8.406;2022-10-31T03:23:01;8.47;;;4.70;;
3407;SDS011;1717;50.240;8.406;2022-10-31T03:25:29;7.67;;;5.00;;
3407;SDS011;1717;50.240;8.406;2022-10-31T03:27:57;8.03;;;4.87;;
3407;SDS011;1717;50.240;8.406;2022-10-31T03:30:28;10.70;;;5.23;;
3407;SDS011;1717;50.240;8.406;2022-10-31T03:32:58;5.60;;;4.57;;
3407;SDS011;1717;50.240;8.406;2022-10-31T03:35:28;7.20;;;4.67;;
3407;SDS011;1717;50.240;8.406;2022-10-31T03:37:58;6.63;;;4.53;;
3407;SDS011;1717;50.240;8.406;2022-10-31T03:40:27;10.30;;;4.30;;
3407;SDS011;1717;50.240;8.406;2022-10-31T03:42:57;5.93;;;4.50;;
3407;SDS011;1717;50.240;8.406;2022-10-31T03:45:30;7.53;;;4.90;;
3407;SDS011;1717;50.240;8.406;2022-10-31T03:47:59;5.87;;;4.30;;
3407;SDS011;1717;50.240;8.406;2022-10-31T03:50:32;12.33;;;5.40;;
3407;SDS011;1717;50.240;8.406;2022-10-31T03:53:05;5.57;;;4.73;;
3407;SDS011;1717;50.240;8.406;2022-10-31T03:55:37;5.33;;;4.73;;
3407;SDS011;1717;50.240;8.406;2022-10-31T03:58:09;8.37;;;4.20;;
3407;SDS011;1717;50.240;8.406;2022-10-31T04:00:39;7.23;;;4.43;;
3407;SDS011;1717;50.240;8.406;2022-10-31T04:03:11;7.60;;;5.23;;
3407;SDS011;1717;50.240;8.406;2022-10-31T04:05:42;7.07;;;4.43;;
3407;SDS011;1717;50.240;8.406;2022-10-31T04:08:14;7.83;;;5.30;;
3407;SDS011;1717;50.240;8.406;2022-10-31T04:10:43;7.80;;;4.73;;
3407;SDS011;1717;50.240;8.406;2022-10-31T04:13:16;5.70;;;4.40;;
3407;SDS011;1717;50.240;8.406;2022-10-31T04:15:46;6.77;;;4.50;;
3407;SDS011;1717;50.240;8.406;2022-10-31T04:18:16;6.53;;;4.17;;
3407;SDS011;1717;50.240;8.406;2022-10-31T04:20:43;5.40;;;4.57;;
3407;SDS011;1717;50.240;8.406;2022-10-31T04:23:13;7.33;;;5.00;;
3407;SDS011;1717;50.240;8.406;2022-10-31T04:25:46;9.20;;;5.70;;
3407;SDS011;1717;50.240;8.406;2022-10-31T04:28:12;14.17;;;5.40;;
3407;SDS011;1717;50.240;8.406;2022-10-31T04:30:39;6.80;;;5.13;;
3407;SDS011;1717;50.240;8.406;2022-10-31T04:33:06;6.90;;;5.47;;
3407;SDS011;1717;50.240;8.406;2022-10-31T04:35:34;11.37;;;5.03;;
3407;SDS011;1717;50.240;8.406;2022-10-31T04:38:01;11.23;;;5.20;;
3407;SDS011;1717;50.240;8.406;2022-10-31T04:40:28;12.50;;;4.70;;
3407;SDS011;1717;50.240;8.406;2022-10-31T04:42:55;7.10;;;5.10;;
3407;SDS011;1717;50.240;8.406;2022-10-31T04:45:21;6.07;;;4.40;;
3407;SDS011;1717;50.240;8.406;2022-10-31T04:47:48;6.83;;;4.67;;
3407;SDS011;1717;50.240;8.406;2022-10-31T04:50:15;7.27;;;5.23;;
3407;SDS011;1717;50.240;8.406;2022-10-31T04:52:44;10.40;;;4.90;;
3407;SDS011;1717;50.240;8.406;2022-10-31T04:55:12;8.00;;;5.03;;
3407;SDS011;1717;50.240;8.406;2022-10-31T04:57:40;11.63;;;4.90;;
3407;SDS011;1717;50.240;8.406;2022-10-31T05:00:08;8.90;;;5.50;;
3407;SDS011;1717;50.240;8.406;2022-10-31T05:02:42;7.17;;;4.53;;
3407;SDS011;1717;50.240;8.406;2022-10-31T05:05:09;9.70;;;5.33;;
3407;SDS011;1717;50.240;8.406;2022-10-31T05:07:37;7.00;;;5.40;;
3407;SDS011;1717;50.240;8.406;2022-10-31T05:10:09;6.57;;;5.57;;
3407;SDS011;1717;50.240;8.406;2022-10-31T05:12:37;9.43;;;6.73;;
3407;SDS011;1717;50.240;8.406;2022-10-31T05:15:11;9.27;;;5.30;;
3407;SDS011;1717;50.240;8.406;2022-10-31T05:17:37;8.63;;;5.23;;
3407;SDS011;1717;50.240;8.406;2022-10-31T05:20:05;6.33;;;5.03;;
3407;SDS011;1717;50.240;8.406;2022-10-31T05:22:32;10.30;;;5.77;;
3407;SDS011;1717;50.240;8.406;2022-10-31T05:24:59;11.00;;;5.43;;
3407;SDS011;1717;50.240;8.406;2022-10-31T05:27:27;11.10;;;6.80;;
3407;SDS011;1717;50.240;8.406;2022-10-31T05:29:54;9.07;;;5.07;;
3407;SDS011;1717;50.240;8.406;2022-10-31T05:32:21;15.93;;;6.93;;
3407;SDS011;1717;50.240;8.406;2022-10-31T05:34:48;11.37;;;6.13;;
3407;SDS011;1717;50.240;8.406;2022-10-31T05:37:15;9.10;;;5.30;;
3407;SDS011;1717;50.240;8.406;2022-10-31T05:39:41;7.40;;;5.60;;
3407;SDS011;1717;50.240;8.406;2022-10-31T05:42:08;10.73;;;6.50;;
3407;SDS011;1717;50.240;8.406;2022-10-31T05:44:36;11.37;;;5.73;;
3407;SDS011;1717;50.240;8.406;2022-10-31T05:47:03;11.23;;;6.43;;
3407;SDS011;1717;50.240;8.406;2022-10-31T05:49:31;12.30;;;6.40;;
3407;SDS011;1717;50.240;8.406;2022-10-31T05:51:57;11.30;;;5.80;;
3407;SDS011;1717;50.240;8.406;2022-10-31T05:54:24;9.80;;;5.90;;
3407;SDS011;1717;50.240;8.406;2022-10-31T05:56:51;16.00;;;6.37;;
3407;SDS011;1717;50.240;8.406;2022-10-31T05:59:18;9.13;;;7.67;;
3407;SDS011;1717;50.240;8.406;2022-10-31T06:01:46;8.03;;;5.67;;
3407;SDS011;1717;50.240;8.406;2022-10-31T06:04:13;10.00;;;5.77;;
3407;SDS011;1717;50.240;8.406;2022-10-31T06:06:39;10.73;;;5.60;;
3407;SDS011;1717;50.240;8.406;2022-10-31T06:09:06;9.40;;;5.43;;
3407;SDS011;1717;50.240;8.406;2022-10-31T06:11:33;10.70;;;5.40;;
3407;SDS011;1717;50.240;8.406;2022-10-31T06:13:59;9.13;;;5.47;;
3407;SDS011;1717;50.240;8.406;2022-10-31T06:16:26;9.73;;;6.20;;
3407;SDS011;1717;50.240;8.406;2022-10-31T06:18:54;6.70;;;5.70;;
3407;SDS011;1717;50.240;8.406;2022-10-31T06:21:21;8.13;;;5.67;;
3407;SDS011;1717;50.240;8.406;2022-10-31T06:23:48;10.10;;;5.67;;
3407;SDS011;1717;50.240;8.406;2022-10-31T06:26:15;8.30;;;5.40;;
3407;SDS011;1717;50.240;8.406;2022-10-31T06:28:42;10.13;;;6.10;;
3407;SDS011;1717;50.240;8.406;2022-10-31T06:31:08;11.67;;;6.53;;
3407;SDS011;1717;50.240;8.406;2022-10-31T06:33:35;11.57;;;5.93;;
3407;SDS011;1717;50.240;8.406;2022-10-31T06:36:04;9.77;;;6.43;;
3407;SDS011;1717;50.240;8.406;2022-10-31T06:38:31;6.07;;;4.90;;
3407;SDS011;1717;50.240;8.406;2022-10-31T06:40:57;11.13;;;5.87;;
3407;SDS011;1717;50.240;8.406;2022-10-31T06:43:27;13.03;;;5.17;;
3407;SDS011;1717;50.240;8.406;2022-10-31T06:45:54;7.97;;;6.27;;
3407;SDS011;1717;50.240;8.406;2022-10-31T06:48:21;11.03;;;5.53;;
3407;SDS011;1717;50.240;8.406;2022-10-31T06:50:47;8.50;;;7.00;;
3407;SDS011;1717;50.240;8.406;2022-10-31T06:53:16;8.60;;;5.63;;
3407;SDS011;1717;50.240;8.406;2022-10-31T06:55:42;8.50;;;5.40;;
3407;SDS011;1717;50.240;8.406;2022-10-31T06:58:10;7.70;;;5.60;;
3407;SDS011;1717;50.240;8.406;2022-10-31T07:00:38;9.60;;;6.10;;
3407;SDS011;1717;50.240;8.406;2022-10-31T07:03:05;10.20;;;5.23;;
3407;SDS011;1717;50.240;8.406;2022-10-31T07:05:36;11.13;;;5.90;;
3407;SDS011;1717;50.240;8.406;2022-10-31T07:08:03;9.33;;;6.00;;
3407;SDS011;1717;50.240;8.406;2022-10-31T07:10:35;8.40;;;5.50;;
3407;SDS011;1717;50.240;8.406;2022-10-31T07:13:04;10.00;;;5.97;;
3407;SDS011;1717;50.240;8.406;2022-10-31T07:15:33;6.50;;;4.93;;
3407;SDS011;1717;50.240;8.406;2022-10-31T07:18:02;8.40;;;5.30;;
3407;SDS011;1717;50.240;8.406;2022-10-31T07:20:31;7.07;;;5.00;;
3407;SDS011;1717;50.240;8.406;2022-10-31T07:22:58;8.07;;;5.30;;
3407;SDS011;1717;50.240;8.406;2022-10-31T07:25:25;7.93;;;5.27;;
3407;SDS011;1717;50.240;8.406;2022-10-31T07:27:53;9.47;;;4.90;;
3407;SDS011;1717;50.240;8.406;2022-10-31T07:30:21;7.13;;;5.43;;
3407;SDS011;1717;50.240;8.406;2022-10-31T07:32:48;6.67;;;4.90;;
3407;SDS011;1717;50.240;8.406;2022-10-31T07:35:17;10.43;;;5.47;;
3407;SDS011;1717;50.240;8.406;2022-10-31T07:37:45;6.23;;;4.67;;
3407;SDS011;1717;50.240;8.406;2022-10-31T07:40:12;6.50;;;5.40;;
3407;SDS011;1717;50.240;8.406;2022-10-31T07:42:40;9.77;;;5.57;;
3407;SDS011;1717;50.240;8.406;2022-10-31T07:45:10;7.63;;;5.27;;
3407;SDS011;1717;50.240;8.406;2022-10-31T07:47:38;11.10;;;5.80;;
3407;SDS011;1717;50.240;8.406;2022-10-31T07:50:05;12.37;;;5.80;;
3407;SDS011;1717;50.240;8.406;2022-10-31T07:52:33;11.87;;;5.90;;
3407;SDS011;1717;50.240;8.406;2022-10-31T07:55:00;8.33;;;5.60;;
3407;SDS011;1717;50.240;8.406;2022-10-31T07:57:26;6.50;;;4.60;;
3407;SDS011;1717;50.240;8.406;2022-10-31T07:59:53;7.97;;;5.27;;
3407;SDS011;1717;50.240;8.406;2022-10-31T08:02:22;10.10;;;5.50;;
3407;SDS011;1717;50.240;8.406;2022-10-31T08:04:49;7.03;;;5.43;;
3407;SDS011;1717;50.240;8.406;2022-10-31T08:07:16;5.30;;;4.77;;
3407;SDS011;1717;50.240;8.406;2022-10-31T08:09:43;8.17;;;4.83;;
3407;SDS011;1717;50.240;8.406;2022-10-31T08:12:10;8.53;;;5.20;;
3407;SDS011;1717;50.240;8.406;2022-10-31T08:14:37;14.40;;;6.60;;
3407;SDS011;1717;50.240;8.406;2022-10-31T08:17:04;7.13;;;5.27;;
3407;SDS011;1717;50.240;8.406;2022-10-31T08:19:32;8.90;;;5.17;;
3407;SDS011;1717;50.240;8.406;2022-10-31T08:21:59;8.73;;;4.87;;
3407;SDS011;1717;50.240;8.406;2022-10-31T08:24:26;5.90;;;4.37;;
3407;SDS011;1717;50.240;8.406;2022-10-31T08:26:53;7.10;;;5.30;;
3407;SDS011;1717;50.240;8.406;2022-10-31T08:29:20;6.80;;;5.40;;
3407;SDS011;1717;50.240;8.406;2022-10-31T08:31:47;9.13;;;5.47;;
3407;SDS011;1717;50.240;8.406;2022-10-31T08:34:14;7.10;;;5.23;;
3407;SDS011;1717;50.240;8.406;2022-10-31T08:36:42;5.60;;;4.27;;
3407;SDS011;1717;50.240;8.406;2022-10-31T08:39:11;5.33;;;4.70;;
3407;SDS011;1717;50.240;8.406;2022-10-31T08:41:38;7.10;;;5.10;;
3407;SDS011;1717;50.240;8.406;2022-10-31T08:44:04;6.10;;;4.67;;
3407;SDS011;1717;50.240;8.406;2022-10-31T08:46:31;8.90;;;4.53;;
3407;SDS011;1717;50.240;8.406;2022-10-31T08:48:59;9.77;;;5.50;;
3407;SDS011;1717;50.240;8.406;2022-10-31T08:51:26;9.20;;;5.40;;
3407;SDS011;1717;50.240;8.406;2022-10-31T08:53:54;9.03;;;4.33;;
3407;SDS011;1717;50.240;8.406;2022-10-31T08:56:21;7.07;;;5.40;;
3407;SDS011;1717;50.240;8.406;2022-10-31T08:58:48;10.30;;;5.10;;
3407;SDS011;1717;50.240;8.406;2022-10-31T09:01:16;6.90;;;4.90;;
3407;SDS011;1717;50.240;8.406;2022-10-31T09:03:43;5.40;;;4.80;;
3407;SDS011;1717;50.240;8.406;2022-10-31T09:06:10;7.40;;;4.73;;
3407;SDS011;1717;50.240;8.406;2022-10-31T09:08:37;7.53;;;6.20;;
3407;SDS011;1717;50.240;8.406;2022-10-31T09:11:05;6.80;;;5.70;;
3407;SDS011;1717;50.240;8.406;2022-10-31T09:13:32;6.80;;;5.20;;
3407;SDS011;1717;50.240;8.406;2022-10-31T09:15:59;5.90;;;5.13;;
3407;SDS011;1717;50.240;8.406;2022-10-31T09:18:26;6.90;;;4.90;;
3407;SDS011;1717;50.240;8.406;2022-10-31T09:20:54;6.73;;;5.07;;
3407;SDS011;1717;50.240;8.406;2022-10-31T09:23:23;11.23;;;6.20;;
3407;SDS011;1717;50.240;8.406;2022-10-31T09:25:51;7.27;;;5.90;;
3407;SDS011;1717;50.240;8.406;2022-10-31T09:28:21;7.87;;;5.67;;
3407;SDS011;1717;50.240;8.406;2022-10-31T09:30:49;8.93;;;6.23;;
3407;SDS011;1717;50.240;8.406;2022-10-31T09:33:17;9.37;;;5.60;;
3407;SDS011;1717;50.240;8.406;2022-10-31T09:35:45;7.43;;;5.60;;
3407;SDS011;1717;50.240;8.406;2022-10-31T09:38:12;7.03;;;6.37;;
3407;SDS011;1717;50.240;8.406;2022-10-31T09:40:41;7.50;;;5.77;;
3407;SDS011;1717;50.240;8.406;2022-10-31T09:43:13;8.03;;;5.27;;
3407;SDS011;1717;50.240;8.406;2022-10-31T09:45:50;8.37;;;5.67;;
3407;SDS011;1717;50.240;8.406;2022-10-31T09:48:28;8.90;;;6.03;;
3407;SDS011;1717;50.240;8.406;2022-10-31T09:51:05;9.93;;;5.23;;
3407;SDS011;1717;50.240;8.406;2022-10-31T09:53:37;8.67;;;5.83;;
3407;SDS011;1717;50.240;8.406;2022-10-31T09:56:07;6.80;;;5.50;;
3407;SDS011;1717;50.240;8.406;2022-10-31T09:58:40;7.07;;;5.67;;
3407;SDS011;1717;50.240;8.406;2022-10-31T10:01:14;11.47;;;6.07;;
3407;SDS011;1717;50.240;8.406;2022-10-31T10:03:50;10.30;;;6.20;;
3407;SDS011;1717;50.240;8.406;2022-10-31T10:06:22;6.00;;;5.33;;
3407;SDS011;1717;50.240;8.406;2022-10-31T10:08:52;7.80;;;5.60;;
3407;SDS011;1717;50.240;8.406;2022-10-31T10:11:26;7.03;;;5.23;;
3407;SDS011;1717;50.240;8.406;2022-10-31T10:17:03;7.83;;;5.03;;
3407;SDS011;1717;50.240;8.406;2022-10-31T10:19:50;8.53;;;5.00;;
3407;SDS011;1717;50.240;8.406;2022-10-31T10:22:31;6.97;;;5.10;;
3407;SDS011;1717;50.240;8.406;2022-10-31T10:25:12;10.23;;;5.57;;
3407;SDS011;1717;50.240;8.406;2022-10-31T10:27:46;8.77;;;6.13;;
3407;SDS011;1717;50.240;8.406;2022-10-31T10:30:30;6.87;;;5.27;;
3407;SDS011;1717;50.240;8.406;2022-10-31T10:33:04;11.67;;;5.73;;
3407;SDS011;1717;50.240;8.406;2022-10-31T10:35:38;11.10;;;6.10;;
3407;SDS011;1717;50.240;8.406;2022-10-31T10:38:11;8.53;;;5.30;;
3407;SDS011;1717;50.240;8.406;2022-10-31T10:40:44;6.07;;;4.90;;
3407;SDS011;1717;50.240;8.406;2022-10-31T10:43:19;6.77;;;4.60;;
3407;SDS011;1717;50.240;8.406;2022-10-31T10:45:49;7.07;;;5.17;;
3407;SDS011;1717;50.240;8.406;2022-10-31T10:48:45;7.40;;;4.50;;
3407;SDS011;1717;50.240;8.406;2022-10-31T10:51:19;9.50;;;4.90;;
3407;SDS011;1717;50.240;8.406;2022-10-31T10:53:51;7.30;;;4.70;;
3407;SDS011;1717;50.240;8.406;2022-10-31T10:56:44;10.67;;;4.70;;
3407;SDS011;1717;50.240;8.406;2022-10-31T10:59:20;6.93;;;4.57;;
3407;SDS011;1717;50.240;8.406;2022-10-31T11:01:48;8.93;;;4.90;;
3407;SDS011;1717;50.240;8.406;2022-10-31T11:04:29;9.43;;;4.80;;
3407;SDS011;1717;50.240;8.406;2022-10-31T11:06:59;5.83;;;4.40;;
3407;SDS011;1717;50.240;8.406;2022-10-31T11:09:27;7.27;;;4.13;;
3407;SDS011;1717;50.240;8.406;2022-10-31T11:11:54;8.70;;;4.43;;
3407;SDS011;1717;50.240;8.406;2022-10-31T11:14:22;6.63;;;4.43;;
3407;SDS011;1717;50.240;8.406;2022-10-31T11:16:51;7.87;;;5.17;;
3407;SDS011;1717;50.240;8.406;2022-10-31T11:19:22;9.47;;;4.83;;
3407;SDS011;1717;50.240;8.406;2022-10-31T11:21:51;7.53;;;4.27;;
3407;SDS011;1717;50.240;8.406;2022-10-31T11:24:19;5.63;;;4.37;;
3407;SDS011;1717;50.240;8.406;2022-10-31T11:26:48;5.33;;;4.03;;
3407;SDS011;1717;50.240;8.406;2022-10-31T11:29:17;5.63;;;3.90;;
3407;SDS011;1717;50.240;8.406;2022-10-31T11:31:46;5.93;;;3.57;;
3407;SDS011;1717;50.240;8.406;2022-10-31T11:34:19;6.37;;;4.60;;
3407;SDS011;1717;50.240;8.406;2022-10-31T11:36:55;7.90;;;3.97;;
3407;SDS011;1717;50.240;8.406;2022-10-31T11:39:27;7.40;;;3.87;;
3407;SDS011;1717;50.240;8.406;2022-10-31T11:41:54;6.00;;;4.27;;
3407;SDS011;1717;50.240;8.406;2022-10-31T11:44:26;9.77;;;3.90;;
3407;SDS011;1717;50.240;8.406;2022-10-31T11:46:55;5.30;;;4.30;;
3407;SDS011;1717;50.240;8.406;2022-10-31T11:49:25;7.53;;;3.70;;
3407;SDS011;1717;50.240;8.406;2022-10-31T11:51:57;6.90;;;3.90;;
3407;SDS011;1717;50.240;8.406;2022-10-31T11:54:27;7.77;;;4.00;;
3407;SDS011;1717;50.240;8.406;2022-10-31T11:56:56;10.73;;;4.60;;
3407;SDS011;1717;50.240;8.406;2022-10-31T11:59:25;5.60;;;3.63;;
3407;SDS011;1717;50.240;8.406;2022-10-31T12:01:54;8.23;;;3.83;;
3407;SDS011;1717;50.240;8.406;2022-10-31T12:04:24;7.27;;;4.77;;
3407;SDS011;1717;50.240;8.406;2022-10-31T12:07:02;5.07;;;3.80;;
3407;SDS011;1717;50.240;8.406;2022-10-31T12:09:29;6.40;;;4.17;;
3407;SDS011;1717;50.240;8.406;2022-10-31T12:12:03;5.10;;;3.33;;
3407;SDS011;1717;50.240;8.406;2022-10-31T12:14:46;6.10;;;4.00;;
3407;SDS011;1717;50.240;8.406;2022-10-31T12:17:21;4.47;;;3.53;;
3407;SDS011;1717;50.240;8.406;2022-10-31T12:19:59;4.80;;;3.20;;
3407;SDS011;1717;50.240;8.406;2022-10-31T12:22:33;7.90;;;4.20;;
3407;SDS011;1717;50.240;8.406;2022-10-31T12:25:17;5.70;;;4.73;;
3407;SDS011;1717;50.240;8.406;2022-10-31T12:28:00;9.23;;;5.00;;
3407;SDS011;1717;50.240;8.406;2022-10-31T12:30:46;10.10;;;5.80;;
3407;SDS011;1717;50.240;8.406;2022-10-31T12:33:27;10.00;;;5.93;;
3407;SDS011;1717;50.240;8.406;2022-10-31T12:36:08;13.03;;;7.53;;
3407;SDS011;1717;50.240;8.406;2022-10-31T12:38:52;10.00;;;5.87;;
3407;SDS011;1717;50.240;8.406;2022-10-31T12:41:33;8.20;;;5.87;;
3407;SDS011;1717;50.240;8.406;2022-10-31T12:44:14;7.97;;;6.07;;
3407;SDS011;1717;50.240;8.406;2022-10-31T12:46:56;8.70;;;5.30;;
3407;SDS011;1717;50.240;8.406;2022-10-31T12:49:39;10.27;;;6.33;;
3407;SDS011;1717;50.240;8.406;2022-10-31T12:52:20;10.93;;;6.53;;
3407;SDS011;1717;50.240;8.406;2022-10-31T12:55:03;11.13;;;6.20;;
3407;SDS011;1717;50.240;8.406;2022-10-31T12:57:41;8.47;;;6.37;;
3407;SDS011;1717;50.240;8.406;2022-10-31T13:00:11;9.00;;;6.10;;
3407;SDS011;1717;50.240;8.406;2022-10-31T13:02:42;10.30;;;6.70;;
3407;SDS011;1717;50.240;8.406;2022-10-31T13:05:17;6.77;;;5.60;;
3407;SDS011;1717;50.240;8.406;2022-10-31T13:07:49;8.30;;;5.87;;
3407;SDS011;1717;50.240;8.406;2022-10-31T13:10:22;8.57;;;6.10;;
3407;SDS011;1717;50.240;8.406;2022-10-31T13:12:54;8.60;;;5.00;;
3407;SDS011;1717;50.240;8.406;2022-10-31T13:15:27;11.53;;;6.00;;
3407;SDS011;1717;50.240;8.406;2022-10-31T13:17:57;11.37;;;5.57;;
3407;SDS011;1717;50.240;8.406;2022-10-31T13:20:27;6.67;;;4.47;;
3407;SDS011;1717;50.240;8.406;2022-10-31T13:23:03;6.70;;;4.47;;
3407;SDS011;1717;50.240;8.406;2022-10-31T13:25:49;6.87;;;5.13;;
3407;SDS011;1717;50.240;8.406;2022-10-31T13:28:23;5.73;;;4.07;;
3407;SDS011;1717;50.240;8.406;2022-10-31T13:30:56;8.10;;;4.40;;
3407;SDS011;1717;50.240;8.406;2022-10-31T13:33:25;6.53;;;3.97;;
3407;SDS011;1717;50.240;8.406;2022-10-31T13:36:08;6.60;;;4.80;;
3407;SDS011;1717;50.240;8.406;2022-10-31T13:38:47;10.73;;;4.17;;
3407;SDS011;1717;50.240;8.406;2022-10-31T13:41:22;5.70;;;4.20;;
3407;SDS011;1717;50.240;8.406;2022-10-31T13:44:00;7.03;;;4.17;;
3407;SDS011;1717;50.240;8.406;2022-10-31T13:46:35;8.33;;;4.00;;
3407;SDS011;1717;50.240;8.406;2022-10-31T13:49:03;4.40;;;3.90;;
3407;SDS011;1717;50.240;8.406;2022-10-31T13:51:31;6.57;;;4.03;;
3407;SDS011;1717;50.240;8.406;2022-10-31T13:54:00;5.90;;;2.90;;
3407;SDS011;1717;50.240;8.406;2022-10-31T13:56:34;10.97;;;5.00;;
3407;SDS011;1717;50.240;8.406;2022-10-31T13:59:03;9.03;;;4.47;;
3407;SDS011;1717;50.240;8.406;2022-10-31T14:01:48;6.67;;;3.30;;
3407;SDS011;1717;50.240;8.406;2022-10-31T14:04:18;6.03;;;3.67;;
3407;SDS011;1717;50.240;8.406;2022-10-31T14:06:50;6.03;;;3.70;;
3407;SDS011;1717;50.240;8.406;2022-10-31T14:09:24;5.90;;;4.10;;
3407;SDS011;1717;50.240;8.406;2022-10-31T14:11:59;3.77;;;3.03;;
3407;SDS011;1717;50.240;8.406;2022-10-31T14:14:31;6.63;;;3.63;;
3407;SDS011;1717;50.240;8.406;2022-10-31T14:17:12;8.50;;;3.33;;
3407;SDS011;1717;50.240;8.406;2022-10-31T14:19:58;8.60;;;3.90;;
3407;SDS011;1717;50.240;8.406;2022-10-31T14:22:31;5.80;;;3.60;;
3407;SDS011;1717;50.240;8.406;2022-10-31T14:24:59;6.50;;;3.40;;
3407;SDS011;1717;50.240;8.406;2022-10-31T14:27:34;5.20;;;3.43;;
3407;SDS011;1717;50.240;8.406;2022-10-31T14:30:22;7.53;;;3.70;;
3407;SDS011;1717;50.240;8.406;2022-10-31T14:32:53;4.50;;;3.40;;
3407;SDS011;1717;50.240;8.406;2022-10-31T14:35:24;5.47;;;2.90;;
3407;SDS011;1717;50.240;8.406;2022-10-31T14:38:11;8.37;;;3.90;;
3407;SDS011;1717;50.240;8.406;2022-10-31T14:41:06;8.90;;;3.57;;
3407;SDS011;1717;50.240;8.406;2022-10-31T14:43:57;3.33;;;2.80;;
3407;SDS011;1717;50.240;8.406;2022-10-31T14:46:45;8.87;;;3.87;;
3407;SDS011;1717;50.240;8.406;2022-10-31T14:49:26;7.57;;;4.03;;
3407;SDS011;1717;50.240;8.406;2022-10-31T14:52:02;8.60;;;3.80;;
3407;SDS011;1717;50.240;8.406;2022-10-31T14:54:33;6.40;;;4.13;;
3407;SDS011;1717;50.240;8.406;2022-10-31T14:57:05;6.00;;;4.00;;
3407;SDS011;1717;50.240;8.406;2022-10-31T14:59:36;6.57;;;3.63;;
3407;SDS011;1717;50.240;8.406;2022-10-31T15:02:08;5.70;;;4.40;;
3407;SDS011;1717;50.240;8.406;2022-10-31T15:04:39;7.70;;;4.47;;
3407;SDS011;1717;50.240;8.406;2022-10-31T15:07:09;4.10;;;3.50;;
3407;SDS011;1717;50.240;8.406;2022-10-31T15:09:40;7.50;;;4.10;;
3407;SDS011;1717;50.240;8.406;2022-10-31T15:15:09;7.93;;;5.47;;
3407;SDS011;1717;50.240;8.406;2022-10-31T15:17:41;7.17;;;5.20;;
3407;SDS011;1717;50.240;8.406;2022-10-31T15:20:10;11.33;;;5.17;;
3407;SDS011;1717;50.240;8.406;2022-10-31T15:22:38;11.07;;;5.23;;
3407;SDS011;1717;50.240;8.406;2022-10-31T15:25:10;9.80;;;6.23;;
3407;SDS011;1717;50.240;8.406;2022-10-31T15:27:43;6.50;;;5.70;;
3407;SDS011;1717;50.240;8.406;2022-10-31T15:30:17;7.13;;;6.47;;
3407;SDS011;1717;50.240;8.406;2022-10-31T15:32:46;8.67;;;6.13;;
3407;SDS011;1717;50.240;8.406;2022-10-31T15:35:19;10.70;;;6.63;;
3407;SDS011;1717;50.240;8.406;2022-10-31T15:37:49;16.33;;;5.83;;
3407;SDS011;1717;50.240;8.406;2022-10-31T15:40:18;8.67;;;5.70;;
3407;SDS011;1717;50.240;8.406;2022-10-31T15:42:47;7.20;;;6.00;;
3407;SDS011;1717;50.240;8.406;2022-10-31T15:45:20;9.40;;;5.70;;
3407;SDS011;1717;50.240;8.406;2022-10-31T15:47:53;8.10;;;5.87;;